Time;durP1;ratioP1;P1;durP2;ratioP2;P2;SDS_P1;SDS_P2;PMS_P1;PMS_P2;Temp;Humidity;BMP_temperature;BMP_pressure;BME280_temperature;BME280_humidity;BME280_pressure;Samples;Min_cycle;Max_cycle;Signal;HPM_P1;HPM_P2
2023/07/17 00:01:45;;;;;;;0.52;0.52;;;;;;;15.49;100.00;99417.09;7394017;19;20011;-53
2023/07/17 00:04:11;;;;;;;1.05;0.28;;;;;;;15.56;100.00;99404.53;7392574;19;20342;-53
2023/07/17 00:06:37;;;;;;;0.38;0.38;;;;;;;16.09;100.00;99411.53;7393374;19;20320;-53
2023/07/17 00:09:04;;;;;;;1.73;0.60;;;;;;;16.19;100.00;99416.28;7391579;19;20036;-53
2023/07/17 00:11:30;;;;;;;0.65;0.57;;;;;;;16.34;100.00;99408.22;7396452;19;20021;-54
2023/07/17 00:13:56;;;;;;;1.40;0.30;;;;;;;16.52;100.00;99406.81;7392401;19;20074;-53
2023/07/17 00:16:22;;;;;;;0.43;0.43;;;;;;;16.74;100.00;99411.41;7392333;19;20481;-53
2023/07/17 00:18:48;;;;;;;0.35;0.30;;;;;;;16.66;100.00;99409.19;7391131;19;20074;-53
2023/07/17 00:21:14;;;;;;;1.08;0.32;;;;;;;17.05;100.00;99405.16;7393189;19;20078;-53
2023/07/17 00:23:41;;;;;;;4.22;0.40;;;;;;;16.98;100.00;99405.78;7399894;19;20002;-53
2023/07/17 00:35:01;;;;;;;0.32;0.20;;;;;;;17.19;100.00;99403.94;7399353;19;20028;-54
2023/07/17 00:56:38;;;;;;;0.47;0.47;;;;;;;17.67;100.00;99426.31;7398379;19;20034;-53
2023/07/17 00:59:05;;;;;;;1.55;0.85;;;;;;;17.11;100.00;99425.53;7399393;19;20368;-54
2023/07/17 01:01:31;;;;;;;0.77;0.28;;;;;;;17.61;100.00;99420.00;7399682;19;20015;-53
2023/07/17 01:04:00;;;;;;;2.78;0.45;;;;;;;17.54;100.00;99431.91;7397385;19;20475;-53
2023/07/17 01:06:28;;;;;;;1.67;0.45;;;;;;;17.58;100.00;99435.16;7398915;19;20014;-54
2023/07/17 01:08:54;;;;;;;0.25;0.25;;;;;;;17.89;100.00;99431.59;7400107;19;20014;-53
2023/07/17 01:18:30;;;;;;;0.25;0.17;;;;;;;18.87;100.00;99438.09;7398756;19;20019;-53
2023/07/17 01:25:25;;;;;;;;;;;;;;;;;;;;;
2023/07/17 02:48:50;;;;;;;0.60;0.45;;;;;;;27.14;89.86;99464.53;7393002;19;20018;-63
2023/07/17 02:51:16;;;;;;;0.20;0.15;;;;;;;21.94;100.00;99470.94;7393284;19;20021;-63
2023/07/17 02:53:43;;;;;;;1.00;1.00;;;;;;;22.15;100.00;99465.13;7395843;19;20010;-63
2023/07/17 02:56:09;;;;;;;2.30;0.73;;;;;;;22.64;100.00;99462.69;7395274;19;20070;-62
2023/07/17 02:58:41;;;;;;;4.68;0.57;;;;;;;23.75;100.00;99472.84;7395263;19;20011;-66
2023/07/17 03:01:07;;;;;;;0.43;0.30;;;;;;;25.09;95.57;99468.81;7395383;19;20014;-66
2023/07/17 03:03:33;;;;;;;0.10;0.10;;;;;;;27.86;88.97;99464.19;7394579;19;20028;-67
2023/07/17 03:06:00;;;;;;;1.08;0.30;;;;;;;24.67;96.54;99460.25;7398666;19;20011;-66
2023/07/17 03:08:26;;;;;;;1.70;0.88;;;;;;;24.07;98.91;99467.94;7394659;19;20462;-66
2023/07/17 03:10:53;;;;;;;0.73;0.68;;;;;;;23.01;100.00;99478.94;7393033;19;20045;-65
2023/07/17 03:13:20;;;;;;;0.85;0.52;;;;;;;19.98;100.00;99475.28;7394093;19;20048;-65
2023/07/17 03:15:50;;;;;;;0.60;0.32;;;;;;;19.41;100.00;99477.81;7397217;19;20478;-66
2023/07/17 03:18:16;;;;;;;1.00;0.30;;;;;;;19.01;100.00;99481.97;7395298;19;20010;-66
2023/07/17 03:20:43;;;;;;;1.80;0.47;;;;;;;19.81;100.00;99489.03;7394703;19;20021;-66
2023/07/17 03:23:10;;;;;;;3.70;0.25;;;;;;;19.18;100.00;99490.88;7393299;19;20014;-63
2023/07/17 03:25:36;;;;;;;0.52;0.50;;;;;;;18.67;100.00;99483.88;7392198;19;20011;-66
2023/07/17 03:28:02;;;;;;;1.25;0.32;;;;;;;19.24;100.00;99483.03;7396525;19;20021;-67
2023/07/17 03:30:29;;;;;;;0.28;0.28;;;;;;;19.63;100.00;99488.66;7393769;19;20382;-67
2023/07/17 03:32:56;;;;;;;0.63;0.63;;;;;;;18.88;100.00;99490.44;7392661;19;20015;-67
2023/07/17 03:35:22;;;;;;;1.23;0.85;;;;;;;20.01;100.00;99485.50;7390356;19;20344;-67
2023/07/17 03:37:49;;;;;;;0.90;0.60;;;;;;;18.91;100.00;99494.97;7395268;19;20015;-66
2023/07/17 03:40:15;;;;;;;3.72;1.33;;;;;;;19.37;100.00;99497.16;7392260;19;20011;-67
2023/07/17 03:42:42;;;;;;;0.75;0.57;;;;;;;19.77;100.00;99494.25;7393105;19;20418;-66
2023/07/17 03:45:09;;;;;;;3.67;1.05;;;;;;;19.08;100.00;99495.41;7392639;19;20011;-67
2023/07/17 03:47:37;;;;;;;0.75;0.50;;;;;;;19.43;100.00;99500.63;7391852;19;20014;-67
2023/07/17 03:50:04;;;;;;;2.25;0.77;;;;;;;19.44;100.00;99501.41;7395238;19;20014;-67
2023/07/17 03:52:30;;;;;;;2.65;0.77;;;;;;;19.53;100.00;99503.78;7391467;19;20336;-67
2023/07/17 03:54:57;;;;;;;0.30;0.30;;;;;;;19.12;100.00;99509.97;7389620;19;20470;-67
2023/07/17 03:57:23;;;;;;;1.77;0.95;;;;;;;19.25;100.00;99501.47;7398981;19;20028;-68
2023/07/17 03:59:54;;;;;;;0.40;0.40;;;;;;;19.36;100.00;99501.28;7399368;19;20346;-65
2023/07/17 04:02:25;;;;;;;0.70;0.40;;;;;;;18.72;100.00;99505.59;7403139;19;20021;-63
2023/07/17 04:04:52;;;;;;;3.22;0.35;;;;;;;18.81;100.00;99510.81;7399485;19;20018;-64
2023/07/17 04:07:21;;;;;;;4.00;0.93;;;;;;;20.65;100.00;99502.69;7398406;19;20048;-64
2023/07/17 04:09:47;;;;;;;2.30;0.82;;;;;;;18.28;100.00;99506.34;7400438;19;20021;-65
2023/07/17 04:12:13;;;;;;;1.52;0.47;;;;;;;17.84;100.00;99507.75;7398545;19;20015;-64
2023/07/17 04:14:39;;;;;;;1.92;0.65;;;;;;;17.90;100.00;99514.06;7401019;19;20022;-66
2023/07/17 04:17:07;;;;;;;4.22;1.38;;;;;;;18.35;100.00;99516.97;7399336;19;20014;-66
2023/07/17 04:19:33;;;;;;;0.77;0.55;;;;;;;17.92;100.00;99509.44;7400638;19;20011;-64
2023/07/17 04:21:59;;;;;;;3.70;0.77;;;;;;;17.60;100.00;99517.06;7399753;19;20014;-67
2023/07/17 04:24:25;;;;;;;0.40;0.40;;;;;;;18.45;100.00;99512.50;7398557;19;20013;-67
2023/07/17 04:26:54;;;;;;;2.60;0.60;;;;;;;18.22;100.00;99509.22;7402768;19;20044;-66
2023/07/17 04:29:24;;;;;;;4.75;1.05;;;;;;;18.14;100.00;99520.38;7398783;19;20034;-67
2023/07/17 04:31:55;;;;;;;0.22;0.22;;;;;;;20.95;100.00;99512.16;7398387;19;20014;-67
2023/07/17 04:34:21;;;;;;;0.65;0.65;;;;;;;21.03;100.00;99506.56;7396896;19;20013;-66
2023/07/17 04:36:48;;;;;;;0.60;0.60;;;;;;;22.20;100.00;99512.41;7397899;19;20015;-68
2023/07/17 04:39:15;;;;;;;0.30;0.30;;;;;;;23.91;100.00;99509.16;7398673;19;20010;-63
2023/07/17 04:41:41;;;;;;;0.45;0.45;;;;;;;19.56;100.00;99526.03;7398300;19;20044;-63
2023/07/17 04:44:09;;;;;;;1.85;1.33;;;;;;;23.95;100.00;99523.72;7398209;19;20021;-65
2023/07/17 04:46:35;;;;;;;2.72;0.98;;;;;;;20.06;100.00;99527.75;7397150;19;20082;-65
2023/07/17 04:49:02;;;;;;;5.30;0.80;;;;;;;19.36;100.00;99528.78;7397461;19;20351;-67
2023/07/17 04:51:28;;;;;;;0.22;0.20;;;;;;;19.39;100.00;99527.69;7398156;19;20010;-67
2023/07/17 04:53:55;;;;;;;3.40;0.40;;;;;;;19.49;100.00;99526.69;7398289;19;20378;-67
2023/07/17 04:56:21;;;;;;;6.43;0.47;;;;;;;19.64;100.00;99526.88;7398557;19;20006;-65
2023/07/17 04:58:48;;;;;;;0.45;0.30;;;;;;;19.73;100.00;99522.09;7398202;19;20030;-70
2023/07/17 05:01:15;;;;;;;1.10;0.55;;;;;;;20.30;100.00;99532.34;7400444;19;20018;-65
2023/07/17 05:03:41;;;;;;;0.40;0.20;;;;;;;21.28;100.00;99523.91;7396858;19;20429;-67
2023/07/17 05:06:08;;;;;;;0.10;0.10;;;;;;;23.06;100.00;99526.28;7397060;19;20394;-67
2023/07/17 05:08:34;;;;;;;1.50;1.13;;;;;;;20.02;100.00;99532.22;7396718;19;20713;-67
2023/07/17 05:11:02;;;;;;;1.08;0.63;;;;;;;20.78;100.00;99526.00;7400981;19;20018;-67
2023/07/17 05:13:34;;;;;;;2.25;0.73;;;;;;;19.68;100.00;99535.78;7396406;19;20478;-67
2023/07/17 05:16:02;;;;;;;3.35;0.93;;;;;;;19.96;100.00;99535.19;7397271;19;20028;-67
2023/07/17 05:18:30;;;;;;;2.67;0.70;;;;;;;22.37;100.00;99536.06;7396963;19;20462;-67
2023/07/17 05:20:56;;;;;;;14.15;1.08;;;;;;;19.85;100.00;99540.31;7401741;19;20006;-67
2023/07/17 05:23:22;;;;;;;0.90;0.75;;;;;;;19.57;100.00;99540.91;7396293;19;20018;-67
2023/07/17 05:25:57;;;;;;;0.93;0.77;;;;;;;19.42;100.00;99541.50;7396001;19;20015;-68
2023/07/17 05:28:24;;;;;;;0.50;0.45;;;;;;;20.10;100.00;99556.44;7396080;19;20419;-67
2023/07/17 05:30:53;;;;;;;0.65;0.10;;;;;;;19.36;100.00;99552.13;7399253;19;20359;-67
2023/07/17 05:33:20;;;;;;;0.38;0.28;;;;;;;19.16;100.00;99555.56;7396931;19;20011;-67
2023/07/17 05:35:46;;;;;;;4.18;0.47;;;;;;;19.23;100.00;99559.81;7396815;19;20026;-67
2023/07/17 05:38:12;;;;;;;4.65;0.52;;;;;;;19.11;100.00;99553.59;7396374;19;20462;-65
2023/07/17 05:40:40;;;;;;;1.27;0.77;;;;;;;19.16;100.00;99563.28;7399432;19;20082;-64
2023/07/17 05:43:08;;;;;;;4.80;0.63;;;;;;;19.22;100.00;99561.88;7396389;19;20010;-64
2023/07/17 05:45:37;;;;;;;1.67;0.73;;;;;;;19.42;100.00;99560.50;7396013;19;20011;-63
2023/07/17 05:48:04;;;;;;;2.15;0.45;;;;;;;19.71;100.00;99559.34;7396331;19;20028;-63
2023/07/17 05:50:30;;;;;;;1.70;0.68;;;;;;;19.59;100.00;99558.09;7398730;19;20010;-63
2023/07/17 05:52:57;;;;;;;1.45;0.52;;;;;;;20.65;100.00;99560.06;7396230;19;20024;-63
2023/07/17 05:55:24;;;;;;;5.88;1.15;;;;;;;19.88;100.00;99573.16;7395790;19;20010;-66
2023/07/17 05:57:50;;;;;;;0.88;0.82;;;;;;;22.04;100.00;99559.84;7395668;19;20010;-64
2023/07/17 06:00:16;;;;;;;2.42;1.45;;;;;;;22.60;100.00;99558.84;7397370;19;20367;-64
2023/07/17 06:02:44;;;;;;;2.58;1.00;;;;;;;17.97;100.00;99573.41;7395667;19;20011;-67
2023/07/17 06:05:10;;;;;;;9.55;1.90;;;;;;;16.67;100.00;99573.06;7395403;19;20364;-66
2023/07/17 06:07:37;;;;;;;0.45;0.40;;;;;;;16.39;100.00;99573.25;7396579;19;20014;-66
2023/07/17 06:10:04;;;;;;;0.55;0.55;;;;;;;16.27;100.00;99577.41;7396440;19;20018;-65
2023/07/17 06:12:30;;;;;;;9.43;1.58;;;;;;;16.19;100.00;99579.25;7396787;19;20014;-65
2023/07/17 06:14:56;;;;;;;2.88;1.17;;;;;;;16.18;100.00;99591.78;7396069;19;20014;-65
2023/07/17 06:17:23;;;;;;;8.70;1.45;;;;;;;16.18;100.00;99588.97;7394476;19;20019;-64
2023/07/17 06:19:49;;;;;;;9.32;1.83;;;;;;;16.36;100.00;99588.34;7394517;19;20043;-65
2023/07/17 06:22:15;;;;;;;10.43;1.50;;;;;;;16.64;100.00;99586.09;7396868;19;20454;-65
2023/07/17 06:24:41;;;;;;;0.75;0.45;;;;;;;16.68;100.00;99592.19;7395061;19;20014;-66
2023/07/17 06:27:07;;;;;;;10.05;0.82;;;;;;;16.64;100.00;99594.53;7396087;19;20010;-66
2023/07/17 06:29:34;;;;;;;2.22;1.00;;;;;;;16.91;100.00;99586.38;7395255;19;20024;-68
2023/07/17 06:32:00;;;;;;;9.73;1.15;;;;;;;17.02;100.00;99603.91;7394418;19;20011;-66
2023/07/17 06:34:26;;;;;;;1.40;0.40;;;;;;;17.08;100.00;99601.06;7395393;19;20018;-66
2023/07/17 06:36:52;;;;;;;8.15;0.73;;;;;;;16.97;100.00;99606.78;7395319;19;20044;-67
2023/07/17 06:39:19;;;;;;;4.00;0.57;;;;;;;16.97;100.00;99606.78;7396155;19;20480;-68
2023/07/17 06:41:45;;;;;;;1.88;0.50;;;;;;;17.13;100.00;99615.06;7394417;19;20013;-68
2023/07/17 06:44:11;;;;;;;1.50;0.82;;;;;;;17.31;100.00;99624.84;7396724;19;20458;-67
2023/07/17 06:46:37;;;;;;;8.82;1.95;;;;;;;17.44;100.00;99622.94;7393882;19;20015;-65
2023/07/17 06:49:03;;;;;;;14.68;1.00;;;;;;;17.40;100.00;99621.69;7393856;19;20022;-63
2023/07/17 06:51:29;;;;;;;0.50;0.35;;;;;;;17.44;100.00;99630.59;7399874;19;20007;-62
2023/07/17 06:53:55;;;;;;;0.63;0.32;;;;;;;17.56;100.00;99634.88;7393264;19;20014;-63
2023/07/17 06:56:21;;;;;;;2.30;0.80;;;;;;;18.60;100.00;99634.03;7393948;19;20026;-61
2023/07/17 06:58:47;;;;;;;0.30;0.30;;;;;;;17.54;100.00;99637.47;7393853;19;20018;-63
2023/07/17 07:01:16;;;;;;;1.63;0.43;;;;;;;17.43;100.00;99643.19;7398466;19;20013;-62
2023/07/17 07:03:43;;;;;;;1.60;0.50;;;;;;;17.49;100.00;99652.31;7395000;19;20347;-63
2023/07/17 07:06:09;;;;;;;1.83;0.70;;;;;;;17.48;100.00;99645.16;7394326;19;20436;-65
2023/07/17 07:08:36;;;;;;;3.50;0.52;;;;;;;17.50;100.00;99650.28;7393052;19;20017;-64
2023/07/17 07:11:03;;;;;;;1.55;0.73;;;;;;;26.75;100.00;99638.00;7398793;19;20016;-64
2023/07/17 07:13:29;;;;;;;0.32;0.30;;;;;;;26.49;97.87;99647.28;7394033;19;20010;-64
2023/07/17 07:15:55;;;;;;;2.20;0.57;;;;;;;22.42;100.00;99651.50;7394966;19;20015;-63
2023/07/17 07:18:22;;;;;;;2.38;0.30;;;;;;;19.33;100.00;99654.84;7394617;19;20022;-64
2023/07/17 07:20:53;;;;;;;0.65;0.10;;;;;;;18.67;100.00;99664.41;7397498;19;20007;-63
2023/07/17 07:23:20;;;;;;;1.20;0.40;;;;;;;18.59;100.00;99666.34;7393283;19;20018;-64
2023/07/17 07:25:46;;;;;;;2.55;0.50;;;;;;;18.53;100.00;99669.25;7394451;19;20011;-64
2023/07/17 07:28:13;;;;;;;1.15;0.50;;;;;;;18.92;100.00;99665.81;7393865;19;20021;-64
2023/07/17 07:30:39;;;;;;;3.67;0.63;;;;;;;27.51;100.00;99658.31;7399300;19;20014;-64
2023/07/17 07:33:05;;;;;;;2.35;0.57;;;;;;;20.39;100.00;99673.31;7401657;19;20033;-64
2023/07/17 07:35:32;;;;;;;5.28;1.35;;;;;;;21.07;100.00;99669.16;7398925;19;20022;-64
2023/07/17 07:37:58;;;;;;;2.25;0.50;;;;;;;21.11;100.00;99674.47;7399345;19;20408;-65
2023/07/17 07:40:25;;;;;;;1.05;0.20;;;;;;;20.54;100.00;99678.38;7402238;19;20013;-66
2023/07/17 07:42:52;;;;;;;2.45;0.95;;;;;;;21.61;100.00;99670.34;7401627;19;20021;-66
2023/07/17 07:45:19;;;;;;;0.40;0.17;;;;;;;19.76;100.00;99680.00;7400157;19;20015;-63
2023/07/17 07:47:45;;;;;;;1.95;0.32;;;;;;;21.18;100.00;99679.44;7400823;19;20015;-61
2023/07/17 07:50:11;;;;;;;0.85;0.47;;;;;;;20.84;100.00;99679.47;7401928;19;20018;-62
2023/07/17 07:52:38;;;;;;;1.05;0.30;;;;;;;20.07;100.00;99687.59;7399578;19;20411;-61
2023/07/17 07:55:05;;;;;;;1.38;0.30;;;;;;;19.24;100.00;99688.38;7397613;19;20332;-61
2023/07/17 07:57:31;;;;;;;0.10;0.05;;;;;;;19.14;100.00;99687.28;7400178;19;20018;-62
2023/07/17 07:59:57;;;;;;;2.83;0.30;;;;;;;20.11;100.00;99692.94;7402372;19;20006;-61
2023/07/17 08:02:23;;;;;;;1.08;0.60;;;;;;;19.08;100.00;99695.81;7399473;19;20010;-65
2023/07/17 08:04:50;;;;;;;1.77;0.80;;;;;;;19.22;100.00;99694.56;7401250;19;20066;-61
2023/07/17 08:07:16;;;;;;;2.60;0.50;;;;;;;19.06;100.00;99704.06;7399272;19;20018;-61
2023/07/17 08:09:43;;;;;;;2.85;0.25;;;;;;;19.36;100.00;99698.97;7399862;19;20010;-61
2023/07/17 08:12:09;;;;;;;0.75;0.45;;;;;;;18.95;100.00;99698.59;7398817;19;20018;-61
2023/07/17 08:14:35;;;;;;;2.83;0.70;;;;;;;18.97;100.00;99703.72;7398667;19;20347;-61
2023/07/17 08:17:02;;;;;;;4.03;0.30;;;;;;;19.38;100.00;99698.44;7399536;19;20324;-61
2023/07/17 08:19:28;;;;;;;3.10;0.77;;;;;;;19.71;100.00;99699.91;7399028;19;20022;-61
2023/07/17 08:21:54;;;;;;;2.00;0.20;;;;;;;19.83;100.00;99701.19;7399025;19;20035;-61
2023/07/17 08:24:20;;;;;;;0.70;0.32;;;;;;;19.39;100.00;99700.72;7398807;19;20360;-61
2023/07/17 08:26:47;;;;;;;0.50;0.30;;;;;;;19.30;100.00;99706.75;7400093;19;20018;-61
2023/07/17 08:29:13;;;;;;;0.43;0.30;;;;;;;19.15;100.00;99703.66;7398451;19;20018;-61
2023/07/17 08:31:40;;;;;;;1.23;0.68;;;;;;;19.23;100.00;99701.00;7399924;19;20359;-60
2023/07/17 08:34:06;;;;;;;2.25;0.75;;;;;;;19.42;100.00;99696.06;7399398;19;20018;-62
2023/07/17 08:36:33;;;;;;;0.90;0.50;;;;;;;19.31;100.00;99705.47;7398907;19;20018;-62
2023/07/17 08:38:59;;;;;;;5.22;0.50;;;;;;;19.27;100.00;99698.59;7398161;19;20045;-61
2023/07/17 08:41:25;;;;;;;4.95;0.10;;;;;;;19.55;100.00;99710.97;7402734;19;20007;-61
2023/07/17 08:43:52;;;;;;;0.20;0.20;;;;;;;19.55;100.00;99716.63;7398471;19;20354;-61
2023/07/17 08:46:19;;;;;;;1.30;0.45;;;;;;;20.03;100.00;99717.50;7398417;19;20014;-61
2023/07/17 08:48:45;;;;;;;0.52;0.30;;;;;;;21.08;100.00;99704.66;7398772;19;20380;-62
2023/07/17 08:51:12;;;;;;;0.38;0.30;;;;;;;20.14;100.00;99706.72;7402162;19;20010;-63
2023/07/17 08:53:41;;;;;;;3.72;0.45;;;;;;;20.21;100.00;99713.81;7399381;19;20014;-61
2023/07/17 08:56:08;;;;;;;0.90;0.30;;;;;;;20.05;100.00;99724.16;7397800;19;20018;-61
2023/07/17 08:58:35;;;;;;;5.32;0.68;;;;;;;19.88;100.00;99726.53;7397024;19;20033;-61
2023/07/17 09:01:01;;;;;;;1.05;0.20;;;;;;;19.80;100.00;99733.38;7401922;19;20028;-61
2023/07/17 09:03:31;;;;;;;0.82;0.20;;;;;;;19.25;100.00;99738.66;7403786;19;20027;-61
2023/07/17 09:05:58;;;;;;;1.13;0.17;;;;;;;19.37;100.00;99728.75;7397725;19;20082;-61
2023/07/17 09:08:24;;;;;;;0.32;0.15;;;;;;;19.02;100.00;99740.31;7397515;19;20011;-61
2023/07/17 09:11:07;;;;;;;1.00;0.52;;;;;;;19.22;100.00;99728.47;7401551;19;20400;-61
2023/07/17 09:13:41;;;;;;;1.75;0.40;;;;;;;19.27;100.00;99719.13;7397089;19;20022;-61
2023/07/17 09:16:25;;;;;;;0.47;0.43;;;;;;;19.87;100.00;99729.91;7398756;19;20013;-61
2023/07/17 09:18:53;;;;;;;2.22;0.50;;;;;;;20.13;100.00;99725.00;7396882;19;20479;-62
2023/07/17 09:21:22;;;;;;;0.38;0.22;;;;;;;19.89;100.00;99730.09;7402390;19;20018;-61
2023/07/17 09:23:51;;;;;;;0.82;0.22;;;;;;;19.75;100.00;99728.59;7398219;19;20014;-63
2023/07/17 09:26:19;;;;;;;2.30;0.25;;;;;;;19.94;100.00;99729.25;7396536;19;20014;-61
2023/07/17 09:29:03;;;;;;;1.33;0.43;;;;;;;20.38;100.00;99734.03;7397957;19;20017;-61
2023/07/17 09:31:32;;;;;;;0.22;0.20;;;;;;;20.50;100.00;99735.31;7400700;19;20019;-61
2023/07/17 09:34:03;;;;;;;0.10;0.10;;;;;;;20.86;100.00;99739.13;7397676;19;20021;-61
2023/07/17 09:36:30;;;;;;;0.63;0.40;;;;;;;21.11;100.00;99737.53;7396733;19;20010;-63
2023/07/17 09:38:58;;;;;;;0.40;0.20;;;;;;;21.40;100.00;99746.09;7398180;19;20077;-61
2023/07/17 09:41:26;;;;;;;0.43;0.20;;;;;;;21.93;100.00;99735.22;7395890;19;20010;-61
2023/07/17 09:44:00;;;;;;;0.50;0.20;;;;;;;22.52;100.00;99740.44;7397593;19;20011;-62
2023/07/17 09:46:28;;;;;;;1.92;0.40;;;;;;;22.32;100.00;99743.38;7395917;19;20030;-63
2023/07/17 09:48:55;;;;;;;2.28;0.20;;;;;;;22.40;100.00;99738.50;7397531;19;20003;-63
2023/07/17 09:51:22;;;;;;;0.55;0.10;;;;;;;22.15;100.00;99745.94;7396631;19;20014;-64
2023/07/17 09:53:50;;;;;;;0.73;0.20;;;;;;;22.01;100.00;99748.13;7393146;19;20011;-66
2023/07/17 09:56:18;;;;;;;1.35;0.10;;;;;;;21.91;100.00;99749.19;7397691;19;20023;-71
2023/07/17 09:58:50;;;;;;;0.77;0.35;;;;;;;21.95;100.00;99746.75;7395637;19;20010;-66
2023/07/17 10:01:19;;;;;;;2.05;0.47;;;;;;;23.06;100.00;99742.19;7397553;19;20034;-64
2023/07/17 10:03:48;;;;;;;0.20;0.10;;;;;;;22.78;100.00;99741.53;7396802;19;20014;-65
2023/07/17 10:06:16;;;;;;;0.60;0.30;;;;;;;23.23;100.00;99738.78;7397297;19;20038;-71
2023/07/17 10:08:47;;;;;;;0.80;0.20;;;;;;;23.15;100.00;99750.13;7396554;19;20396;-71
2023/07/17 10:11:17;;;;;;;2.30;0.45;;;;;;;23.34;100.00;99744.13;7395027;19;20091;-62
2023/07/17 10:13:44;;;;;;;;;;;;;;;23.23;100.00;99747.31;7396634;19;20078;-63
2023/07/17 10:16:13;;;;;;;3.40;0.43;;;;;;;22.53;100.00;99753.34;7392699;19;19911;-62
2023/07/17 10:18:58;;;;;;;1.38;0.47;;;;;;;21.78;100.00;99764.97;7396845;19;20465;-62
2023/07/17 10:21:24;;;;;;;0.90;0.10;;;;;;;21.72;100.00;99781.34;7393201;19;20022;-62
2023/07/17 10:23:52;;;;;;;0.10;0.10;;;;;;;21.04;100.00;99783.53;7394282;19;20458;-62
2023/07/17 10:26:20;;;;;;;1.15;0.30;;;;;;;20.50;100.00;99783.41;7394296;19;20018;-61
2023/07/17 10:28:53;;;;;;;1.23;0.38;;;;;;;20.23;100.00;99779.84;7392759;19;20017;-62
2023/07/17 10:31:31;;;;;;;1.38;0.30;;;;;;;19.79;100.00;99797.63;7397001;19;20022;-63
2023/07/17 10:34:01;;;;;;;0.43;0.20;;;;;;;19.89;100.00;99812.84;7393015;19;20426;-63
2023/07/17 10:36:44;;;;;;;0.15;0.13;;;;;;;19.97;100.00;99810.13;7395600;19;20014;-63
2023/07/17 10:39:19;;;;;;;0.17;0.10;;;;;;;19.60;100.00;99814.63;7393835;19;20034;-62
2023/07/17 10:41:49;;;;;;;1.85;0.28;;;;;;;20.16;100.00;99813.66;7394151;19;20014;-63
2023/07/17 10:44:19;;;;;;;2.90;0.50;;;;;;;20.13;100.00;99826.81;7398616;19;20486;-63
2023/07/17 10:46:46;;;;;;;0.10;0.10;;;;;;;20.74;100.00;99822.78;7395910;19;20498;-61
2023/07/17 10:49:14;;;;;;;3.03;0.20;;;;;;;20.63;100.00;99817.38;7394905;19;20079;-61
2023/07/17 10:51:46;;;;;;;0.38;0.20;;;;;;;20.57;100.00;99819.56;7395266;19;20362;-62
2023/07/17 10:54:13;;;;;;;0.30;0.20;;;;;;;20.62;100.00;99815.81;7393478;19;20011;-61
2023/07/17 10:56:40;;;;;;;0.15;0.10;;;;;;;20.69;100.00;99809.50;7395830;19;20003;-61
2023/07/17 10:59:07;;;;;;;0.95;0.20;;;;;;;20.93;100.00;99823.41;7398724;19;20506;-61
2023/07/17 11:01:33;;;;;;;0.40;0.10;;;;;;;21.38;100.00;99828.06;7395022;19;20011;-61
2023/07/17 11:03:59;;;;;;;3.30;0.50;;;;;;;20.82;100.00;99829.31;7398767;19;20335;-60
2023/07/17 11:06:26;;;;;;;1.67;0.40;;;;;;;21.14;100.00;99838.41;7394402;19;20396;-60
2023/07/17 11:08:54;;;;;;;0.40;0.25;;;;;;;21.32;100.00;99844.44;7393365;19;20475;-60
2023/07/17 11:11:20;;;;;;;0.60;0.20;;;;;;;21.37;100.00;99849.22;7393306;19;20023;-61
2023/07/17 11:13:48;;;;;;;0.10;0.10;;;;;;;21.46;100.00;99852.31;7394044;19;20014;-61
2023/07/17 11:16:16;;;;;;;1.27;0.10;;;;;;;20.54;100.00;99848.94;7397392;19;20074;-60
2023/07/17 11:18:47;;;;;;;0.85;0.30;;;;;;;20.48;100.00;99853.94;7394453;19;20124;-60
2023/07/17 11:21:15;;;;;;;0.10;0.00;;;;;;;20.68;100.00;99853.25;7395013;19;20011;-62
2023/07/17 11:23:55;;;;;;;0.35;0.10;;;;;;;20.62;100.00;99861.09;7394779;19;20043;-62
2023/07/17 11:26:26;;;;;;;0.20;0.13;;;;;;;20.72;100.00;99859.38;7391816;19;20014;-63
2023/07/17 11:28:54;;;;;;;0.00;0.00;;;;;;;21.66;100.00;99856.50;7393665;19;20375;-62
2023/07/17 11:31:26;;;;;;;1.80;0.32;;;;;;;22.86;100.00;99851.00;7392867;19;20015;-62
2023/07/17 11:33:58;;;;;;;1.85;0.20;;;;;;;22.40;100.00;99840.66;7392431;19;20017;-62
2023/07/17 11:36:26;;;;;;;0.32;0.15;;;;;;;22.58;100.00;99846.09;7394581;19;20007;-63
2023/07/17 11:38:56;;;;;;;0.10;0.10;;;;;;;24.04;100.00;99844.66;7394136;19;20070;-63
2023/07/17 11:41:23;;;;;;;;;;;;;;;23.53;100.00;99855.41;7394496;19;20329;-63
2023/07/17 11:43:57;;;;;;;0.52;0.20;;;;;;;23.54;100.00;99856.16;7393648;19;20228;-67
2023/07/17 11:46:25;;;;;;;5.93;0.35;;;;;;;22.87;100.00;99854.59;7393833;19;20021;-66
2023/07/17 11:48:53;;;;;;;0.38;0.38;;;;;;;22.17;100.00;99866.06;7394005;19;20011;-64
2023/07/17 11:51:24;;;;;;;6.15;0.55;;;;;;;21.87;100.00;99885.66;7395431;19;20014;-60
2023/07/17 11:53:54;;;;;;;0.95;0.20;;;;;;;20.81;100.00;99892.88;7393564;19;20015;-62
2023/07/17 11:56:34;;;;;;;;;;;;;;;19.93;100.00;99891.66;7394032;19;20099;-62
2023/07/17 11:59:00;;;;;;;0.20;0.20;;;;;;;19.64;100.00;99894.19;7393019;19;19915;-62
2023/07/17 12:01:26;;;;;;;0.10;0.10;;;;;;;19.62;100.00;99891.13;7393647;19;20025;-62
2023/07/17 12:03:52;;;;;;;1.45;0.30;;;;;;;19.97;100.00;99892.09;7395205;19;20015;-62
2023/07/17 12:06:19;;;;;;;0.10;0.00;;;;;;;20.23;100.00;99909.16;7394079;19;20478;-62
2023/07/17 12:08:46;;;;;;;0.30;0.10;;;;;;;19.98;100.00;99899.31;7395993;19;20007;-62
2023/07/17 12:11:13;;;;;;;0.85;0.10;;;;;;;19.86;100.00;99892.31;7396501;19;20022;-61
2023/07/17 12:13:39;;;;;;;0.85;0.10;;;;;;;20.05;100.00;99898.69;7394730;19;20010;-62
2023/07/17 12:16:05;;;;;;;1.45;0.30;;;;;;;19.27;100.00;99899.09;7395361;19;20025;-62
2023/07/17 12:18:31;;;;;;;0.40;0.15;;;;;;;21.16;100.00;99902.97;7399810;19;20355;-62
2023/07/17 12:20:57;;;;;;;1.15;0.75;;;;;;;23.05;100.00;99896.13;7400576;19;20023;-62
2023/07/17 12:23:23;;;;;;;0.70;0.28;;;;;;;21.52;100.00;99894.72;7400206;19;20018;-62
2023/07/17 12:25:49;;;;;;;0.45;0.20;;;;;;;21.35;100.00;99902.84;7402156;19;20042;-62
2023/07/17 12:28:16;;;;;;;0.17;0.17;;;;;;;21.25;100.00;99898.94;7400363;19;20019;-63
2023/07/17 12:30:42;;;;;;;0.73;0.20;;;;;;;21.31;100.00;99896.75;7399037;19;20007;-62
2023/07/17 12:33:08;;;;;;;1.42;0.15;;;;;;;20.93;100.00;99897.00;7400203;19;20011;-62
2023/07/17 12:35:34;;;;;;;0.32;0.10;;;;;;;20.76;100.00;99899.44;7397808;19;20293;-62
2023/07/17 12:38:00;;;;;;;0.43;0.10;;;;;;;20.48;100.00;99907.69;7402613;19;20362;-62
2023/07/17 12:40:26;;;;;;;0.38;0.05;;;;;;;20.40;100.00;99895.47;7399950;19;20030;-61
2023/07/17 12:42:52;;;;;;;0.57;0.20;;;;;;;20.79;100.00;99894.75;7399928;19;20013;-62
2023/07/17 12:45:19;;;;;;;0.80;0.25;;;;;;;20.54;100.00;99899.84;7400077;19;20017;-62
2023/07/17 12:47:45;;;;;;;0.38;0.38;;;;;;;20.77;100.00;99903.75;7399465;19;20018;-62
2023/07/17 12:50:11;;;;;;;2.65;0.10;;;;;;;20.69;100.00;99914.22;7399625;19;20022;-62
2023/07/17 12:52:37;;;;;;;2.78;0.50;;;;;;;20.60;100.00;99905.41;7398937;19;20029;-62
2023/07/17 12:55:04;;;;;;;3.33;0.98;;;;;;;21.04;100.00;99910.97;7397250;19;20006;-62
2023/07/17 12:57:30;;;;;;;0.47;0.10;;;;;;;22.11;100.00;99899.47;7401186;19;20058;-62
2023/07/17 12:59:56;;;;;;;0.10;0.10;;;;;;;22.25;100.00;99903.75;7399900;19;20019;-62
2023/07/17 13:02:24;;;;;;;0.95;0.45;;;;;;;21.12;100.00;99917.50;7400405;19;20014;-62
2023/07/17 13:04:50;;;;;;;0.57;0.20;;;;;;;21.03;100.00;99920.75;7399374;19;20011;-62
2023/07/17 13:07:16;;;;;;;0.25;0.10;;;;;;;21.17;100.00;99923.56;7399841;19;20006;-62
2023/07/17 13:09:43;;;;;;;1.38;0.30;;;;;;;20.58;100.00;99928.59;7398995;19;20014;-62
2023/07/17 13:12:09;;;;;;;0.90;0.20;;;;;;;20.47;100.00;99928.03;7399711;19;20025;-62
2023/07/17 13:14:35;;;;;;;0.20;0.20;;;;;;;20.38;100.00;99932.03;7397370;19;20007;-61
2023/07/17 13:17:01;;;;;;;0.13;0.13;;;;;;;20.39;100.00;99925.84;7398509;19;20022;-61
2023/07/17 13:19:28;;;;;;;0.20;0.10;;;;;;;20.97;100.00;99931.41;7398357;19;20372;-62
2023/07/17 13:21:55;;;;;;;0.60;0.28;;;;;;;21.63;100.00;99939.81;7397971;19;20039;-62
2023/07/17 13:24:23;;;;;;;3.25;0.17;;;;;;;21.43;100.00;99937.69;7399249;19;20014;-62
2023/07/17 13:26:49;;;;;;;0.40;0.20;;;;;;;21.14;100.00;99926.19;7397481;19;20351;-62
2023/07/17 13:29:15;;;;;;;0.10;0.00;;;;;;;21.31;100.00;99930.75;7397804;19;20010;-62